昆明 の空港の天気 - METARとTAF

昆明巫家餽国際空港 ( ZPPP / KMG ) - 中国 雲南省昆明市
飛行場実況気象(Metar)
観測時間06/18 03:00 CST (06/17 19:00 UTC)
風向・風速南南西 5m/s
視程10km以上
天気現象
全天の4割程度の雲 雲底高度 700m
全天の4割程度の雲 雲底高度 1100m
気温19℃
湿度88%
気圧1017hPa
METARZPPP 171900Z 21005MPS 9999 SCT023 SCT036 19/17 Q1017 NOSIG
過去の天気等 Google飛行場航空写真 Wunderground天気予報

過去48時間のMETAR

飛行場予報(TAF)
発表時間: 6/17 21:05 CST (6/17 13:05 UTC)
予報対象時間: 18日2時 CST ~ 19日2時 CST
風向・風速南西 6m/s
視程10km以上
全天の4割程度の雲 雲底高度 790m
全天の8割程度の雲 雲底高度 1220m
TAF ZPPP 171305Z 1718/1818 22006MPS 9999 SCT026 BKN040 TX28/1808Z TN18/1723Z